Time;durP1;ratioP1;P1;durP2;ratioP2;P2;SDS_P1;SDS_P2;PMS_P1;PMS_P2;Temp;Humidity;BMP_temperature;BMP_pressure;BME280_temperature;BME280_humidity;BME280_pressure;Samples;Min_cycle;Max_cycle;Signal;HPM_P1;HPM_P2
2023/08/07 00:12:27;;;;;;;7.10;4.00;;;;;;;22.18;87.82;98532.18;664943;1272;139228;-78
2023/08/07 00:27:30;;;;;;;8.90;7.60;;;;;;;22.21;88.41;98532.89;664013;1273;139140;-78
2023/08/07 00:42:33;;;;;;;5.20;2.50;;;;;;;21.94;89.27;98512.00;665733;1266;139465;-80
2023/08/07 00:57:37;;;;;;;6.20;3.80;;;;;;;21.89;88.80;98501.96;665982;1267;138816;-78
2023/08/07 01:12:59;;;;;;;5.50;2.00;;;;;;;21.84;88.53;98503.26;666007;1280;139796;-79
2023/08/07 01:28:12;;;;;;;1.90;0.90;;;;;;;21.67;88.49;98512.52;666142;1269;139002;-79
2023/08/07 01:43:18;;;;;;;2.20;1.70;;;;;;;21.60;88.29;98498.15;665794;1270;139542;-78
2023/08/07 01:58:22;;;;;;;2.90;2.20;;;;;;;21.55;87.55;98506.31;666481;1270;138692;-78
2023/08/07 02:13:25;;;;;;;3.20;2.20;;;;;;;21.55;86.96;98518.59;666196;1269;139025;-78
2023/08/07 02:28:29;;;;;;;3.70;3.20;;;;;;;21.32;87.89;98507.48;672560;1271;138319;-78
2023/08/07 02:43:34;;;;;;;2.80;2.50;;;;;;;21.07;88.57;98517.79;672244;1273;139814;-78
2023/08/07 03:07:40;;;;;;;1.90;1.70;;;;;;;21.10;88.19;98516.61;648982;1301;4690231;-80
2023/08/07 03:23:11;;;;;;;2.50;1.90;;;;;;;20.94;87.42;98542.35;672321;1274;138081;-79
2023/08/07 03:38:39;;;;;;;1.90;1.50;;;;;;;21.04;86.70;98522.33;672413;1272;140670;-79
2023/08/07 03:54:16;;;;;;;2.70;2.00;;;;;;;21.05;86.25;98546.55;671340;1273;139363;-81
2023/08/07 04:10:00;;;;;;;3.10;2.10;;;;;;;20.93;86.46;98561.73;670117;1272;138090;-80
2023/08/07 04:25:37;;;;;;;1.10;1.00;;;;;;;21.03;85.75;98578.09;669548;1270;138265;-79
2023/08/07 04:41:03;;;;;;;1.30;1.20;;;;;;;21.18;84.57;98585.33;673883;1269;139359;-80
2023/08/07 04:56:50;;;;;;;1.30;0.80;;;;;;;21.07;84.73;98590.55;666619;1269;138603;-81
2023/08/07 05:12:23;;;;;;;1.00;0.80;;;;;;;21.06;85.03;98608.41;674841;1264;137796;-79
2023/08/07 05:28:12;;;;;;;1.00;0.80;;;;;;;21.16;84.38;98610.40;676643;1262;136663;-80
2023/08/07 05:44:05;;;;;;;1.40;1.20;;;;;;;21.05;84.65;98622.41;676562;1265;137374;-80
2023/08/07 05:59:42;;;;;;;0.90;0.90;;;;;;;21.26;84.51;98634.17;677625;1266;139118;-80
2023/08/07 06:15:27;;;;;;;1.30;0.60;;;;;;;21.28;83.91;98659.42;673295;1266;138397;-80
2023/08/07 06:31:13;;;;;;;1.20;1.00;;;;;;;21.55;83.68;98659.81;673000;1266;139979;-81
2023/08/07 06:46:45;;;;;;;1.60;1.10;;;;;;;21.85;81.72;98680.90;672825;1266;138805;-80
2023/08/07 07:02:30;;;;;;;1.10;0.80;;;;;;;21.89;81.65;98690.92;673468;1265;138670;-80
2023/08/07 07:18:23;;;;;;;0.50;0.50;;;;;;;22.30;80.38;98690.92;676261;1266;138187;-79
2023/08/07 07:34:10;;;;;;;1.50;0.50;;;;;;;22.41;80.43;98703.22;671549;1265;139373;-79
2023/08/07 07:50:17;;;;;;;1.00;0.60;;;;;;;22.69;79.77;98722.52;675790;1265;138019;-80
2023/08/07 08:05:56;;;;;;;0.70;0.70;;;;;;;22.29;80.24;98717.57;678900;1267;22570;-79
2023/08/07 08:21:18;;;;;;;1.20;1.10;;;;;;;21.88;79.85;98727.32;670234;1268;138112;-79
2023/08/07 08:36:23;;;;;;;3.00;1.10;;;;;;;21.94;79.08;98748.05;670039;1268;139433;-80
2023/08/07 08:51:27;;;;;;;2.60;1.50;;;;;;;21.93;78.36;98765.13;671687;1272;138716;-78
2023/08/07 09:06:32;;;;;;;3.30;2.50;;;;;;;22.15;77.56;98778.11;670057;1265;138769;-79
2023/08/07 09:21:36;;;;;;;2.50;2.10;;;;;;;22.07;77.69;98769.97;671703;1265;139521;-78
2023/08/07 09:36:41;;;;;;;9.70;4.80;;;;;;;21.71;80.85;98799.58;671875;1271;138468;-78
2023/08/07 09:51:50;;;;;;;6.20;4.70;;;;;;;22.04;80.37;98832.08;669311;1266;138683;-79
2023/08/07 10:06:53;;;;;;;3.70;3.10;;;;;;;22.51;80.22;98840.01;671249;1276;138737;-80
2023/08/07 10:21:58;;;;;;;3.00;1.80;;;;;;;23.22;79.25;98845.05;670561;1267;139195;-78
2023/08/07 10:37:02;;;;;;;5.80;2.50;;;;;;;23.68;77.13;98873.08;669432;1275;138916;-78
2023/08/07 10:52:11;;;;;;;3.50;2.10;;;;;;;23.84;74.25;98900.02;668215;1266;141113;-77
2023/08/07 11:07:24;;;;;;;2.90;1.60;;;;;;;24.68;71.51;98911.27;671799;1267;138672;-78
2023/08/07 11:22:28;;;;;;;5.80;4.30;;;;;;;24.53;69.80;98899.13;672533;1267;140592;-79
2023/08/07 11:37:32;;;;;;;5.00;2.10;;;;;;;25.80;64.63;98877.83;672904;1266;139104;-79
2023/08/07 11:52:35;;;;;;;12.40;7.00;;;;;;;24.03;63.79;98880.84;672886;1263;138738;-78
2023/08/07 12:07:40;;;;;;;7.80;3.30;;;;;;;24.94;62.80;98885.18;672138;1266;138814;-78
2023/08/07 12:22:44;;;;;;;3.50;1.30;;;;;;;24.28;64.36;98902.27;672163;1264;139781;-79
2023/08/07 12:37:48;;;;;;;3.90;1.40;;;;;;;24.19;65.17;98937.23;670825;1267;142139;-77
2023/08/07 12:52:51;;;;;;;3.20;1.40;;;;;;;24.82;64.11;98954.11;670851;1264;138614;-79
2023/08/07 13:07:58;;;;;;;2.80;1.70;;;;;;;24.62;64.42;98966.02;674528;1266;140272;-79
2023/08/07 13:23:04;;;;;;;4.20;1.60;;;;;;;24.85;64.18;98980.91;672432;1269;140173;-79
2023/08/07 13:38:21;;;;;;;;;;;;;;;;;;;;;
2023/08/07 13:54:24;;;;;;;4.10;2.10;;;;;;;25.66;62.15;98983.14;674366;1260;138703;-76
2023/08/07 14:09:39;;;;;;;3.10;1.90;;;;;;;25.19;61.71;98995.38;677680;1262;138930;-78
2023/08/07 14:24:44;;;;;;;3.10;1.80;;;;;;;25.13;61.33;99000.55;667743;1264;139075;-77
2023/08/07 14:39:48;;;;;;;3.30;1.90;;;;;;;24.90;62.26;99009.15;668186;1267;138740;-77
2023/08/07 14:54:53;;;;;;;3.30;1.90;;;;;;;24.95;62.24;99033.15;668577;1262;140817;-77
2023/08/07 15:09:56;;;;;;;3.80;2.20;;;;;;;24.72;61.87;99029.61;669453;1262;138515;-76
2023/08/07 15:25:00;;;;;;;7.00;1.70;;;;;;;24.01;60.21;99030.26;669567;1262;138659;-77
2023/08/07 15:40:04;;;;;;;5.20;2.20;;;;;;;23.80;60.48;99048.73;669435;1262;139567;-77
2023/08/07 15:55:08;;;;;;;5.80;2.90;;;;;;;22.91;65.58;99063.17;672386;1262;139406;-77
2023/08/07 16:10:11;;;;;;;4.10;2.50;;;;;;;22.88;68.55;99036.06;670864;1262;140083;-76
2023/08/07 16:25:16;;;;;;;5.10;2.60;;;;;;;22.95;68.82;99039.64;669855;1262;137967;-75
2023/08/07 16:40:25;;;;;;;6.60;2.70;;;;;;;23.51;67.74;99045.24;669621;1273;25398;-77
2023/08/07 16:55:39;;;;;;;5.40;2.60;;;;;;;23.67;67.40;99049.04;671752;1262;271079;-76
2023/08/07 17:10:49;;;;;;;5.50;3.20;;;;;;;23.54;67.32;99052.43;669150;1262;22617;-76
2023/08/07 17:26:31;;;;;;;5.90;3.10;;;;;;;23.41;67.33;99062.38;669329;1262;22586;-77
2023/08/07 17:41:39;;;;;;;6.20;3.20;;;;;;;23.13;68.13;99075.45;669573;1263;22755;-77
2023/08/07 17:56:50;;;;;;;9.20;5.70;;;;;;;23.18;67.71;99079.80;669398;1262;139606;-78
2023/08/07 18:11:58;;;;;;;21.70;10.70;;;;;;;23.11;66.79;99084.40;671927;1262;25294;-77
2023/08/07 18:27:08;;;;;;;7.90;4.40;;;;;;;23.04;66.06;99088.17;676487;1260;22578;-77
2023/08/07 18:42:24;;;;;;;6.40;3.80;;;;;;;23.03;67.23;99098.48;674647;1262;22616;-77
2023/08/07 18:57:44;;;;;;;10.20;4.30;;;;;;;22.97;67.61;99105.81;674963;1262;25436;-78
2023/08/07 19:12:52;;;;;;;6.20;3.10;;;;;;;23.02;67.66;99103.27;670664;1266;139677;-77
2023/08/07 19:28:15;;;;;;;10.80;3.60;;;;;;;23.06;68.14;99105.41;672137;1262;22572;-78
2023/08/07 19:43:24;;;;;;;18.00;12.10;;;;;;;22.87;69.31;99109.36;671674;1262;139368;-77
2023/08/07 19:58:28;;;;;;;27.70;12.40;;;;;;;23.12;68.97;99113.00;670233;1259;22575;-77
2023/08/07 20:13:32;;;;;;;29.30;14.90;;;;;;;23.16;68.04;99124.98;669237;1265;22561;-75
2023/08/07 20:28:36;;;;;;;51.20;25.90;;;;;;;23.12;68.00;99132.72;669079;1264;25358;-76
2023/08/07 20:43:39;;;;;;;27.10;13.30;;;;;;;23.29;67.32;99137.79;669240;1260;22571;-76
2023/08/07 20:58:45;;;;;;;22.20;10.40;;;;;;;22.84;67.71;99144.82;669100;1262;22640;-78
2023/08/07 21:13:48;;;;;;;9.70;3.80;;;;;;;22.55;67.77;99144.52;670615;1262;22571;-76
2023/08/07 21:29:14;;;;;;;12.20;4.70;;;;;;;22.28;67.49;99143.33;669253;1263;24222;-77
2023/08/07 21:44:18;;;;;;;7.30;3.30;;;;;;;22.30;66.96;99141.45;668722;1262;22581;-79
2023/08/07 21:59:22;;;;;;;9.30;3.70;;;;;;;22.27;67.04;99142.09;669893;1259;22551;-76
2023/08/07 22:14:25;;;;;;;15.80;8.00;;;;;;;22.64;65.49;99138.45;668932;1265;22569;-77
2023/08/07 22:29:29;;;;;;;17.90;7.60;;;;;;;22.69;65.12;99141.05;669115;1263;24214;-78
2023/08/07 22:44:32;;;;;;;17.70;7.10;;;;;;;22.35;65.52;99132.85;668671;1263;25559;-76
2023/08/07 22:59:36;;;;;;;13.80;3.80;;;;;;;21.92;65.54;99134.33;668968;1262;138629;-77
2023/08/07 23:14:40;;;;;;;8.80;3.40;;;;;;;21.53;64.66;99134.95;669152;1275;22705;-77
2023/08/07 23:29:44;;;;;;;8.70;2.50;;;;;;;21.38;62.78;99136.80;675212;1262;22936;-76
2023/08/07 23:44:47;;;;;;;10.00;2.90;;;;;;;21.46;61.96;99140.50;669316;1260;22595;-76
2023/08/07 23:59:52;;;;;;;11.10;3.20;;;;;;;21.17;61.30;99143.49;669409;1262;140490;-77
